createdAt,value
2023-05-01T00:06:07.614Z,1014.2
2023-05-01T00:12:13.317Z,1014.2
2023-05-01T00:18:19.552Z,1014.1
2023-05-01T00:24:24.669Z,1014.1
2023-05-01T00:30:30.915Z,1014
2023-05-01T00:36:36.249Z,1014
2023-05-01T00:42:42.281Z,1014
2023-05-01T00:48:48.401Z,1013.9
2023-05-01T00:54:54.018Z,1013.9
2023-05-01T01:00:59.738Z,1013.8
2023-05-01T01:07:05.727Z,1013.8
2023-05-01T01:13:11.524Z,1013.8
2023-05-01T01:19:16.706Z,1013.7
2023-05-01T01:25:22.493Z,1013.7
2023-05-01T01:31:28.052Z,1013.6
2023-05-01T01:37:34.182Z,1013.6
2023-05-01T01:43:40.192Z,1013.5
2023-05-01T01:49:45.416Z,1013.5
2023-05-01T01:55:51.136Z,1013.4
2023-05-01T02:01:57.186Z,1013.4
2023-05-01T02:08:02.682Z,1013.4
2023-05-01T02:14:08.708Z,1013.4
2023-05-01T02:20:14.275Z,1013.4
2023-05-01T02:26:20.101Z,1013.3
2023-05-01T02:32:25.622Z,1013.2
2023-05-01T02:38:31.612Z,1013.1
2023-05-01T02:44:36.948Z,1013
2023-05-01T02:50:42.944Z,1013
2023-05-01T02:56:48.335Z,1013
2023-05-01T03:02:53.908Z,1013
2023-05-01T03:08:59.709Z,1013
2023-05-01T03:15:05.234Z,1013
2023-05-01T03:21:11.631Z,1013
2023-05-01T03:27:17.063Z,1012.9
2023-05-01T03:33:23.173Z,1012.8
2023-05-01T03:39:28.813Z,1012.8
2023-05-01T03:45:34.547Z,1012.9
2023-05-01T03:51:40.940Z,1012.8
2023-05-01T03:57:46.518Z,1012.8
2023-05-01T04:03:53.161Z,1012.8
2023-05-01T04:09:59.918Z,1012.8
2023-05-01T04:16:06.347Z,1012.8
2023-05-01T04:22:11.476Z,1012.7
2023-05-01T04:28:17.429Z,1012.7
2023-05-01T04:34:23.241Z,1012.7
2023-05-01T04:40:28.189Z,1012.7
2023-05-01T04:46:33.943Z,1012.7
2023-05-01T04:52:40.151Z,1012.7
2023-05-01T04:58:46.090Z,1012.7
2023-05-01T05:04:51.708Z,1012.7
2023-05-01T05:10:57.653Z,1012.7
2023-05-01T05:17:02.803Z,1012.7
2023-05-01T05:23:10.204Z,1012.8
2023-05-01T05:29:15.388Z,1012.9
2023-05-01T05:35:20.959Z,1012.9
2023-05-01T05:41:26.529Z,1012.9
2023-05-01T05:47:31.948Z,1012.9
2023-05-01T05:53:37.282Z,1013
2023-05-01T05:59:43.269Z,1012.9
2023-05-01T06:05:48.739Z,1013
2023-05-01T06:11:54.822Z,1012.9
2023-05-01T06:18:00.082Z,1012.9
2023-05-01T06:24:06.370Z,1012.9
2023-05-01T06:30:11.938Z,1012.9
2023-05-01T06:36:17.518Z,1012.9
2023-05-01T06:42:23.140Z,1012.9
2023-05-01T06:48:28.851Z,1013
2023-05-01T06:54:34.502Z,1012.9
2023-05-01T07:00:40.789Z,1013
2023-05-01T07:06:46.496Z,1013
2023-05-01T07:12:53.398Z,1013
2023-05-01T07:18:58.992Z,1013
2023-05-01T07:25:05.373Z,1013
2023-05-01T07:31:10.395Z,1013
2023-05-01T07:37:16.568Z,1013
2023-05-01T07:43:22.390Z,1013
2023-05-01T07:49:28.273Z,1013
2023-05-01T07:55:34.096Z,1013
2023-05-01T08:01:39.839Z,1013.1
2023-05-01T08:07:46.206Z,1013.1
2023-05-01T08:13:51.809Z,1013.2
2023-05-01T08:19:58.358Z,1013.2
2023-05-01T08:26:04.601Z,1013.2
2023-05-01T08:32:10.544Z,1013.3
2023-05-01T08:38:15.593Z,1013.3
2023-05-01T08:44:21.302Z,1013.3
2023-05-01T08:50:26.955Z,1013.4
2023-05-01T08:56:32.652Z,1013.4
2023-05-01T09:02:38.287Z,1013.5
2023-05-01T09:08:43.586Z,1013.5
2023-05-01T09:14:49.572Z,1013.6
2023-05-01T09:20:55.338Z,1013.6
2023-05-01T09:27:01.530Z,1013.6
2023-05-01T09:33:07.332Z,1013.7
2023-05-01T09:39:13.727Z,1013.7
2023-05-01T09:45:19.313Z,1013.7
2023-05-01T09:51:25.058Z,1013.8
2023-05-01T09:57:31.052Z,1013.8
2023-05-01T10:03:37.290Z,1013.8
2023-05-01T10:09:43.683Z,1013.8
2023-05-01T10:15:48.670Z,1013.7
2023-05-01T10:21:53.932Z,1013.8
2023-05-01T10:27:59.975Z,1013.8
2023-05-01T10:34:05.488Z,1013.7
2023-05-01T10:40:11.666Z,1013.7
2023-05-01T10:46:17.693Z,1013.7
2023-05-01T10:52:24.037Z,1013.6
2023-05-01T10:58:29.420Z,1013.6
2023-05-01T11:04:35.408Z,1013.5
2023-05-01T11:10:40.837Z,1013.5
2023-05-01T11:16:46.825Z,1013.5
2023-05-01T11:22:52.989Z,1013.4
2023-05-01T11:28:59.336Z,1013.4
2023-05-01T11:35:05.165Z,1013.4
2023-05-01T11:41:10.904Z,1013.3
2023-05-01T11:47:16.760Z,1013.4
2023-05-01T11:53:21.850Z,1013.4
2023-05-01T11:59:28.009Z,1013.4
2023-05-01T12:05:34.191Z,1013.4
2023-05-01T12:11:40.388Z,1013.4
2023-05-01T12:17:45.694Z,1013.4
2023-05-01T12:23:51.760Z,1013.4
2023-05-01T12:29:57.572Z,1013.4
2023-05-01T12:36:03.101Z,1013.4
2023-05-01T12:42:09.077Z,1013.4
2023-05-01T12:48:14.718Z,1013.4
2023-05-01T12:54:20.433Z,1013.5
2023-05-01T13:00:26.594Z,1013.5
2023-05-01T13:06:32.300Z,1013.5
2023-05-01T13:12:38.577Z,1013.5
2023-05-01T13:18:44.608Z,1013.4
2023-05-01T13:24:50.538Z,1013.3
2023-05-01T13:30:56.381Z,1013.3
2023-05-01T13:37:01.960Z,1013.4
2023-05-01T13:43:07.859Z,1013.4
2023-05-01T13:49:13.722Z,1013.4
2023-05-01T13:55:19.622Z,1013.3
2023-05-01T14:01:25.425Z,1013.3
2023-05-01T14:07:31.393Z,1013.3
2023-05-01T14:13:37.256Z,1013.2
2023-05-01T14:19:42.785Z,1013.2
2023-05-01T14:25:48.327Z,1013.3
2023-05-01T14:31:54.905Z,1013.2
2023-05-01T14:38:00.150Z,1013.3
2023-05-01T14:44:06.253Z,1013.3
2023-05-01T14:50:12.312Z,1013.3
2023-05-01T14:56:17.828Z,1013.4
2023-05-01T15:02:23.714Z,1013.4
2023-05-01T15:08:29.641Z,1013.4
2023-05-01T15:14:34.954Z,1013.5
2023-05-01T15:20:40.783Z,1013.5
2023-05-01T15:26:46.934Z,1013.5
2023-05-01T15:32:53.801Z,1013.6
2023-05-01T15:38:59.153Z,1013.6
2023-05-01T15:45:04.665Z,1013.6
2023-05-01T15:51:11.042Z,1013.7
2023-05-01T15:57:16.478Z,1013.7
2023-05-01T16:03:22.501Z,1013.7
2023-05-01T16:09:28.429Z,1013.7
2023-05-01T16:15:33.998Z,1013.7
2023-05-01T16:21:40.333Z,1013.7
2023-05-01T16:27:45.300Z,1013.7
2023-05-01T16:33:51.295Z,1013.7
2023-05-01T16:39:57.642Z,1013.8
2023-05-01T16:46:04.371Z,1013.8
2023-05-01T16:52:09.906Z,1013.8
2023-05-01T16:58:16.027Z,1013.8
2023-05-01T17:04:21.658Z,1013.8
2023-05-01T17:10:27.569Z,1013.9
2023-05-01T17:16:33.671Z,1013.9
2023-05-01T17:22:39.414Z,1014
2023-05-01T17:28:44.643Z,1014
2023-05-01T17:34:50.881Z,1014
2023-05-01T17:40:56.476Z,1014.1
2023-05-01T17:47:02.473Z,1014.2
2023-05-01T17:53:08.296Z,1014.2
2023-05-01T17:59:14.446Z,1014.2
2023-05-01T18:05:20.072Z,1014.3
2023-05-01T18:11:25.576Z,1014.4
2023-05-01T18:17:31.800Z,1014.4
2023-05-01T18:23:37.400Z,1014.5
2023-05-01T18:29:43.108Z,1014.6
2023-05-01T18:35:49.298Z,1014.6
2023-05-01T18:41:54.964Z,1014.7
2023-05-01T18:48:01.271Z,1014.8
2023-05-01T18:54:07.517Z,1014.8
2023-05-01T19:00:13.279Z,1014.9
2023-05-01T19:06:19.442Z,1015
2023-05-01T19:12:24.977Z,1015.1
2023-05-01T19:18:30.968Z,1015.1
2023-05-01T19:24:36.820Z,1015.1
2023-05-01T19:30:42.107Z,1015.1
2023-05-01T19:36:48.296Z,1015.1
2023-05-01T19:42:53.793Z,1015.1
2023-05-01T19:48:59.439Z,1015.2
2023-05-01T19:55:05.491Z,1015.2
2023-05-01T20:01:11.818Z,1015.2
2023-05-01T20:07:19.699Z,1015.3
2023-05-01T20:13:25.085Z,1015.4
2023-05-01T20:19:31.248Z,1015.5
2023-05-01T20:25:36.778Z,1015.6
2023-05-01T20:31:43.003Z,1015.6
2023-05-01T20:37:48.576Z,1015.6
2023-05-01T20:43:54.510Z,1015.6
2023-05-01T20:50:01.136Z,1015.6
2023-05-01T20:56:07.141Z,1015.7
2023-05-01T21:02:13.214Z,1015.7
2023-05-01T21:08:18.639Z,1015.7
2023-05-01T21:14:24.826Z,1015.7
2023-05-01T21:20:30.095Z,1015.8
2023-05-01T21:26:35.790Z,1015.8
2023-05-01T21:32:42.056Z,1015.8
2023-05-01T21:38:47.775Z,1015.9
2023-05-01T21:44:53.311Z,1015.9
2023-05-01T21:50:59.492Z,1016
2023-05-01T21:57:05.072Z,1016
2023-05-01T22:03:11.188Z,1016
2023-05-01T22:09:17.251Z,1016
2023-05-01T22:15:23.278Z,1016
2023-05-01T22:21:28.592Z,1016
2023-05-01T22:27:34.828Z,1016
2023-05-01T22:33:40.562Z,1016
2023-05-01T22:39:46.947Z,1016.1
2023-05-01T22:45:52.593Z,1016.2
2023-05-01T22:51:57.895Z,1016.2
2023-05-01T22:58:03.661Z,1016.2
2023-05-01T23:04:09.660Z,1016.3
2023-05-01T23:10:15.405Z,1016.3
2023-05-01T23:16:21.422Z,1016.2
2023-05-01T23:22:27.657Z,1016.2
2023-05-01T23:28:33.368Z,1016.2
2023-05-01T23:34:38.995Z,1016.2
2023-05-01T23:40:44.262Z,1016.2
2023-05-01T23:46:49.912Z,1016.2
2023-05-01T23:52:55.045Z,1016.2
2023-05-01T23:59:00.679Z,1016.2
